Atica — EA4943 — position and weather

sailwx.info

Track history (hours):
 
Tides and Currents Weather Stations Pressure Air Temp Water Temp Dewpoint Dewpoint Depression Visibility Wind Speed Wind Dir Waves Ship Positions

Atica

Last reported at 2016-Jul-25 16:26 UTC. Time now 2016-Jul-28 12:29 UTC.
Position N 39°31' E 002°28'.

Type: Sailing vessel. MMSI: 224499180.

Date/timePositionNaut miles runAvg speedWind from/ knotsBaromVisibWave heightAir tempDewpointWater temp
2016-Jul-25 16:26N 39°31' E 002°28'5 5.2
2016-Jul-25 15:33N 39°27' E 002°32'3 3.3
2016-Jul-25 14:33N 39°30' E 002°34'2 1.6
2016-Jul-25 13:31N 39°31' E 002°33'0 0.0
2016-Jul-25 12:28N 39°31' E 002°33'1 1.1
2016-Jul-25 11:33N 39°30' E 002°33'3 0.8
2016-Jul-25 07:33N 39°28' E 002°32'4 4.4
2016-Jul-25 06:32N 39°30' E 002°27'1 0.1
2016-Jul-24 18:19N 39°31' E 002°28'0 0.0
2016-Jul-24 16:13N 39°31' E 002°28'0 0.0
2016-Jul-24 08:25N 39°31' E 002°28'0 0.0
2016-Jul-24 01:19N 39°31' E 002°28'0 0.0
2016-Jul-23 13:25N 39°31' E 002°28'1 1.6
2016-Jul-23 12:32N 39°31' E 002°26'0 0.0
2016-Jul-22 06:31N 39°31' E 002°26'  
2016-Jul-19 15:07N 39°46' E 002°38'4 7.1
2016-Jul-19 14:32N 39°49' E 002°42'0 0.0
2016-Jul-17 10:33N 39°49' E 002°42'1 1.4
2016-Jul-17 09:31N 39°48' E 002°41'0 0.0
2016-Jul-17 08:31N 39°48' E 002°41'0 0.0
2016-Jul-17 07:31N 39°48' E 002°41'0 0.0
2016-Jul-17 06:31N 39°48' E 002°41'0 0.0
2016-Jul-17 04:31N 39°48' E 002°41'0 0.0
2016-Jul-17 03:31N 39°48' E 002°41'0 0.0
2016-Jul-17 02:31N 39°48' E 002°41'0 0.0
2016-Jul-17 01:31N 39°48' E 002°41'0 0.0
2016-Jul-17 00:31N 39°48' E 002°41'0 0.0
2016-Jul-16 23:31N 39°48' E 002°41'0 0.0
2016-Jul-16 22:25N 39°48' E 002°41'0 0.0
2016-Jul-16 21:16N 39°48' E 002°41'0 0.0
2016-Jul-16 20:28N 39°48' E 002°41'0 0.0
2016-Jul-16 19:31N 39°48' E 002°41'0 0.0
2016-Jul-16 18:31N 39°48' E 002°41'0 0.1
2016-Jul-16 17:27N 39°48' E 002°42'21 2.0
2016-Jul-16 06:30N 39°31' E 002°24'  
Track history (hours):
 
Tides and Currents Weather Stations Pressure Air Temp Water Temp Dewpoint Dewpoint Depression Visibility Wind Speed Wind Dir Waves Ship Positions

Atica

Last reported at 2016-Jul-25 16:26 UTC. Time now 2016-Jul-28 12:29 UTC.
Position N 39°31' E 002°28'.

Type: Sailing vessel. MMSI: 224499180.

Date/timePositionNaut miles runAvg speedWind from/ knotsBaromVisibWave heightAir tempDewpointWater temp
2016-Jul-25 16:26N 39°31' E 002°28'5 5.2
2016-Jul-25 15:33N 39°27' E 002°32'3 3.3
2016-Jul-25 14:33N 39°30' E 002°34'2 1.6
2016-Jul-25 13:31N 39°31' E 002°33'0 0.0
2016-Jul-25 12:28N 39°31' E 002°33'1 1.1
2016-Jul-25 11:33N 39°30' E 002°33'3 0.8
2016-Jul-25 07:33N 39°28' E 002°32'4 4.4
2016-Jul-25 06:32N 39°30' E 002°27'1 0.1
2016-Jul-24 18:19N 39°31' E 002°28'0 0.0
2016-Jul-24 16:13N 39°31' E 002°28'0 0.0
2016-Jul-24 08:25N 39°31' E 002°28'0 0.0
2016-Jul-24 01:19N 39°31' E 002°28'0 0.0
2016-Jul-23 13:25N 39°31' E 002°28'1 1.6
2016-Jul-23 12:32N 39°31' E 002°26'0 0.0
2016-Jul-22 06:31N 39°31' E 002°26'  
2016-Jul-19 15:07N 39°46' E 002°38'4 7.1
2016-Jul-19 14:32N 39°49' E 002°42'0 0.0
2016-Jul-17 10:33N 39°49' E 002°42'1 1.4
2016-Jul-17 09:31N 39°48' E 002°41'0 0.0
2016-Jul-17 08:31N 39°48' E 002°41'0 0.0
2016-Jul-17 07:31N 39°48' E 002°41'0 0.0
2016-Jul-17 06:31N 39°48' E 002°41'0 0.0
2016-Jul-17 04:31N 39°48' E 002°41'0 0.0
2016-Jul-17 03:31N 39°48' E 002°41'0 0.0
2016-Jul-17 02:31N 39°48' E 002°41'0 0.0
2016-Jul-17 01:31N 39°48' E 002°41'0 0.0
2016-Jul-17 00:31N 39°48' E 002°41'0 0.0
2016-Jul-16 23:31N 39°48' E 002°41'0 0.0
2016-Jul-16 22:25N 39°48' E 002°41'0 0.0
2016-Jul-16 21:16N 39°48' E 002°41'0 0.0
2016-Jul-16 20:28N 39°48' E 002°41'0 0.0
2016-Jul-16 19:31N 39°48' E 002°41'0 0.0
2016-Jul-16 18:31N 39°48' E 002°41'0 0.1
2016-Jul-16 17:27N 39°48' E 002°42'21 2.0
2016-Jul-16 06:30N 39°31' E 002°24'  

Dump ship's entire track history